Hlavní strana
METAR-TAF:

METAR-TAF

Letiště :

St. Moritz, Švýcarsko

zeměpisná šířka: 46-32-03N, zeměpisná délka: 9-53-03E, výška: 1707 m

Aktuální stav počasí

Zpráva byla vytvořena před 26 minutami, v 04:20 UTC
vítr z různých směrů 2 kt
Teplota -2°C
Vlhkost vzduchu 86%
Tlak 1025 hPa
Viditelnost 10 km a více

METAR: LSZS 210420Z AUTO VRB02KT 9999 NSC M02/M04 Q1025

Čas: 06:46 (04:46 UTC)

Předpověď počasí

Zpráva byla vytvořena před 14 hodinami a 21 minutami, v 14:25 UTC
Předpověď platná od 20 v 15 UTC do 20 v 24 UTC
Severoseverovýchodní vítr 4 kt
Viditelnost 10 km a více
Žádná oblačnost pod 1500 m, nevyskytují se cumulonimby.
Pravděpodobnost 40% :
Dočasný
od 20 v 15 UTC do 20 v 18 UTC
Jihozápadní vítr 10 kt
Viditelnost 10 km a více
Skoro jasno ve výšce 5000 ft

TAF: LSZS 201425Z 2015/2024 02004KT CAVOK TX10/2015Z PROB40 TEMPO 2015/2018 22010KT 9999 FEW050

Stav a předpovědi počasí z více než 4 000 letišť (zprávy METAR a TAF).

Červené a žluté tečky na mapě představují dostupné meteorologické stanice.

Když kurzor umístíte na tečku, zobrazí se název stanice.

Pak kliknutím zobrazíte stav a předpověď počasí.

Chcete-li změnit mapu, kliknutím na zelené tlačítko se znaménkem +mapu přiblížíte, kliknutím na zelené tlačítko se znaménkem – mapu oddálíte a kliknutím na zelené šipky přejdete na sousední mapy.


METAR-TAF: